sensor_id;sensor_type;location;lat;lon;timestamp;pressure;altitude;pressure_sealevel;temperature
15709;BMP180;7954;51.914;8.420;2022-11-15T00:01:16;99744.91;;;17.54
15709;BMP180;7954;51.914;8.420;2022-11-15T00:03:45;99737.66;;;17.57
15709;BMP180;7954;51.914;8.420;2022-11-15T00:06:15;99742.22;;;17.60
15709;BMP180;7954;51.914;8.420;2022-11-15T00:08:43;99743.13;;;17.60
15709;BMP180;7954;51.914;8.420;2022-11-15T00:11:11;99736.91;;;17.58
15709;BMP180;7954;51.914;8.420;2022-11-15T00:13:43;99737.31;;;17.61
15709;BMP180;7954;51.914;8.420;2022-11-15T00:16:11;99727.28;;;17.63
15709;BMP180;7954;51.914;8.420;2022-11-15T00:18:39;99734.03;;;17.62
15709;BMP180;7954;51.914;8.420;2022-11-15T00:21:16;99722.00;;;17.61
15709;BMP180;7954;51.914;8.420;2022-11-15T00:23:44;99728.94;;;17.62
15709;BMP180;7954;51.914;8.420;2022-11-15T00:26:14;99727.88;;;17.67
15709;BMP180;7954;51.914;8.420;2022-11-15T00:28:43;99728.97;;;17.69
15709;BMP180;7954;51.914;8.420;2022-11-15T00:31:13;99732.44;;;17.70
15709;BMP180;7954;51.914;8.420;2022-11-15T00:33:43;99727.72;;;17.73
15709;BMP180;7954;51.914;8.420;2022-11-15T00:36:11;99726.47;;;17.76
15709;BMP180;7954;51.914;8.420;2022-11-15T00:38:41;99729.75;;;17.75
15709;BMP180;7954;51.914;8.420;2022-11-15T00:41:08;99730.88;;;17.77
15709;BMP180;7954;51.914;8.420;2022-11-15T00:43:37;99721.44;;;17.83
15709;BMP180;7954;51.914;8.420;2022-11-15T00:46:08;99708.31;;;17.87
15709;BMP180;7954;51.914;8.420;2022-11-15T00:48:37;99723.63;;;17.87
15709;BMP180;7954;51.914;8.420;2022-11-15T00:51:05;99715.25;;;17.88
15709;BMP180;7954;51.914;8.420;2022-11-15T00:53:33;99702.13;;;17.92
15709;BMP180;7954;51.914;8.420;2022-11-15T00:56:02;99707.44;;;17.94
15709;BMP180;7954;51.914;8.420;2022-11-15T00:58:31;99701.06;;;17.97
15709;BMP180;7954;51.914;8.420;2022-11-15T01:01:05;99700.53;;;18.00
15709;BMP180;7954;51.914;8.420;2022-11-15T01:03:36;99699.59;;;17.99
15709;BMP180;7954;51.914;8.420;2022-11-15T01:06:06;99701.06;;;17.97
15709;BMP180;7954;51.914;8.420;2022-11-15T01:08:34;99695.03;;;17.97
15709;BMP180;7954;51.914;8.420;2022-11-15T01:11:02;99693.22;;;17.96
15709;BMP180;7954;51.914;8.420;2022-11-15T01:13:31;99686.47;;;17.96
15709;BMP180;7954;51.914;8.420;2022-11-15T01:16:06;99678.84;;;18.03
15709;BMP180;7954;51.914;8.420;2022-11-15T01:18:37;99676.66;;;18.06
15709;BMP180;7954;51.914;8.420;2022-11-15T01:21:07;99674.09;;;18.06
15709;BMP180;7954;51.914;8.420;2022-11-15T01:23:37;99669.72;;;18.05
15709;BMP180;7954;51.914;8.420;2022-11-15T01:26:06;99665.00;;;18.08
15709;BMP180;7954;51.914;8.420;2022-11-15T01:28:36;99667.94;;;18.11
15709;BMP180;7954;51.914;8.420;2022-11-15T01:31:07;99658.28;;;18.15
15709;BMP180;7954;51.914;8.420;2022-11-15T01:33:37;99657.78;;;18.18
15709;BMP180;7954;51.914;8.420;2022-11-15T01:36:08;99658.69;;;18.18
15709;BMP180;7954;51.914;8.420;2022-11-15T01:38:36;99657.78;;;18.18
15709;BMP180;7954;51.914;8.420;2022-11-15T01:41:05;99654.06;;;18.16
15709;BMP180;7954;51.914;8.420;2022-11-15T01:43:34;99655.50;;;18.14
15709;BMP180;7954;51.914;8.420;2022-11-15T01:46:06;99657.53;;;18.09
15709;BMP180;7954;51.914;8.420;2022-11-15T01:48:35;99653.31;;;18.03
15709;BMP180;7954;51.914;8.420;2022-11-15T01:51:12;99649.97;;;17.97
15709;BMP180;7954;51.914;8.420;2022-11-15T01:53:45;99656.53;;;17.95
15709;BMP180;7954;51.914;8.420;2022-11-15T01:56:16;99640.44;;;17.89
15709;BMP180;7954;51.914;8.420;2022-11-15T01:58:47;99652.31;;;17.89
15709;BMP180;7954;51.914;8.420;2022-11-15T02:01:15;99660.34;;;17.92
15709;BMP180;7954;51.914;8.420;2022-11-15T02:03:46;99641.19;;;17.88
15709;BMP180;7954;51.914;8.420;2022-11-15T02:06:18;99650.34;;;17.93
15709;BMP180;7954;51.914;8.420;2022-11-15T02:08:49;99642.13;;;17.96
15709;BMP180;7954;51.914;8.420;2022-11-15T02:11:17;99647.78;;;18.00
15709;BMP180;7954;51.914;8.420;2022-11-15T02:13:45;99655.84;;;18.03
15709;BMP180;7954;51.914;8.420;2022-11-15T02:16:18;99647.13;;;18.08
15709;BMP180;7954;51.914;8.420;2022-11-15T02:18:52;99644.56;;;18.15
15709;BMP180;7954;51.914;8.420;2022-11-15T02:21:29;99650.81;;;18.17
15709;BMP180;7954;51.914;8.420;2022-11-15T02:28:05;99641.13;;;18.14
15709;BMP180;7954;51.914;8.420;2022-11-15T02:30:43;99636.91;;;18.15
15709;BMP180;7954;51.914;8.420;2022-11-15T02:33:26;99642.94;;;18.15
15709;BMP180;7954;51.914;8.420;2022-11-15T02:35:58;99637.84;;;18.15
15709;BMP180;7954;51.914;8.420;2022-11-15T02:38:31;99634.34;;;18.15
15709;BMP180;7954;51.914;8.420;2022-11-15T02:41:04;99626.38;;;18.19
15709;BMP180;7954;51.914;8.420;2022-11-15T02:43:38;99635.50;;;18.24
15709;BMP180;7954;51.914;8.420;2022-11-15T02:46:33;99637.16;;;18.23
15709;BMP180;7954;51.914;8.420;2022-11-15T02:49:32;99630.94;;;18.21
15709;BMP180;7954;51.914;8.420;2022-11-15T02:52:01;99623.66;;;18.24
15709;BMP180;7954;51.914;8.420;2022-11-15T02:54:31;99622.19;;;18.26
15709;BMP180;7954;51.914;8.420;2022-11-15T02:57:02;99622.59;;;18.29
15709;BMP180;7954;51.914;8.420;2022-11-15T02:59:53;99623.13;;;18.34
15709;BMP180;7954;51.914;8.420;2022-11-15T03:02:34;99617.50;;;18.43
15709;BMP180;7954;51.914;8.420;2022-11-15T03:05:15;99616.44;;;18.48
15709;BMP180;7954;51.914;8.420;2022-11-15T03:07:53;99618.44;;;18.51
15709;BMP180;7954;51.914;8.420;2022-11-15T03:10:34;99623.19;;;18.55
15709;BMP180;7954;51.914;8.420;2022-11-15T03:13:11;99619.91;;;18.56
15709;BMP180;7954;51.914;8.420;2022-11-15T03:15:45;99614.44;;;18.60
15709;BMP180;7954;51.914;8.420;2022-11-15T03:18:22;99620.81;;;18.56
15709;BMP180;7954;51.914;8.420;2022-11-15T03:20:52;99617.53;;;18.57
15709;BMP180;7954;51.914;8.420;2022-11-15T03:23:21;99616.81;;;18.58
15709;BMP180;7954;51.914;8.420;2022-11-15T03:25:50;99616.78;;;18.51
15709;BMP180;7954;51.914;8.420;2022-11-15T03:28:22;99616.78;;;18.51
15709;BMP180;7954;51.914;8.420;2022-11-15T03:30:53;99613.31;;;18.51
15709;BMP180;7954;51.914;8.420;2022-11-15T03:33:23;99614.78;;;18.56
15709;BMP180;7954;51.914;8.420;2022-11-15T03:35:53;99615.16;;;18.59
15709;BMP180;7954;51.914;8.420;2022-11-15T03:38:23;99613.88;;;18.62
15709;BMP180;7954;51.914;8.420;2022-11-15T03:40:55;99621.56;;;18.55
15709;BMP180;7954;51.914;8.420;2022-11-15T03:43:30;99610.03;;;18.59
15709;BMP180;7954;51.914;8.420;2022-11-15T03:46:02;99606.75;;;18.60
15709;BMP180;7954;51.914;8.420;2022-11-15T03:48:39;99623.94;;;18.61
15709;BMP180;7954;51.914;8.420;2022-11-15T03:51:09;99626.13;;;18.65
15709;BMP180;7954;51.914;8.420;2022-11-15T03:53:38;99623.97;;;18.68
15709;BMP180;7954;51.914;8.420;2022-11-15T03:56:06;99623.59;;;18.71
15709;BMP180;7954;51.914;8.420;2022-11-15T03:58:34;99619.56;;;18.67
15709;BMP180;7954;51.914;8.420;2022-11-15T04:01:05;99614.09;;;18.70
15709;BMP180;7954;51.914;8.420;2022-11-15T04:03:35;99626.16;;;18.71
15709;BMP180;7954;51.914;8.420;2022-11-15T04:06:03;99617.38;;;18.69
15709;BMP180;7954;51.914;8.420;2022-11-15T04:08:31;99610.09;;;18.72
15709;BMP180;7954;51.914;8.420;2022-11-15T04:11:00;99611.19;;;18.68
15709;BMP180;7954;51.914;8.420;2022-11-15T04:13:29;99610.97;;;18.73
15709;BMP180;7954;51.914;8.420;2022-11-15T04:15:57;99610.44;;;18.75
15709;BMP180;7954;51.914;8.420;2022-11-15T04:18:25;99607.50;;;18.79
15709;BMP180;7954;51.914;8.420;2022-11-15T04:20:56;99609.34;;;18.80
15709;BMP180;7954;51.914;8.420;2022-11-15T04:23:41;99604.22;;;18.80
15709;BMP180;7954;51.914;8.420;2022-11-15T04:26:26;99606.78;;;18.80
15709;BMP180;7954;51.914;8.420;2022-11-15T04:28:54;99614.81;;;18.83
15709;BMP180;7954;51.914;8.420;2022-11-15T04:31:40;99617.75;;;18.79
15709;BMP180;7954;51.914;8.420;2022-11-15T04:34:13;99631.66;;;18.81
15709;BMP180;7954;51.914;8.420;2022-11-15T04:36:42;99624.69;;;18.80
15709;BMP180;7954;51.914;8.420;2022-11-15T04:39:28;99617.38;;;18.76
15709;BMP180;7954;51.914;8.420;2022-11-15T04:41:57;99622.13;;;18.73
15709;BMP180;7954;51.914;8.420;2022-11-15T04:44:26;99624.50;;;18.72
15709;BMP180;7954;51.914;8.420;2022-11-15T04:46:54;99622.88;;;18.72
15709;BMP180;7954;51.914;8.420;2022-11-15T04:49:22;99620.66;;;18.75
15709;BMP180;7954;51.914;8.420;2022-11-15T04:51:52;99617.94;;;18.74
15709;BMP180;7954;51.914;8.420;2022-11-15T04:54:21;99618.47;;;18.71
15709;BMP180;7954;51.914;8.420;2022-11-15T04:56:48;99617.75;;;18.72
15709;BMP180;7954;51.914;8.420;2022-11-15T04:59:17;99621.41;;;18.74
15709;BMP180;7954;51.914;8.420;2022-11-15T05:01:45;99618.66;;;18.73
15709;BMP180;7954;51.914;8.420;2022-11-15T05:04:14;99608.59;;;18.74
15709;BMP180;7954;51.914;8.420;2022-11-15T05:06:52;99605.88;;;18.73
15709;BMP180;7954;51.914;8.420;2022-11-15T05:09:20;99614.25;;;18.72
15709;BMP180;7954;51.914;8.420;2022-11-15T05:11:48;99619.56;;;18.73
15709;BMP180;7954;51.914;8.420;2022-11-15T05:14:17;99614.81;;;18.69
15709;BMP180;7954;51.914;8.420;2022-11-15T05:16:45;99619.94;;;18.69
15709;BMP180;7954;51.914;8.420;2022-11-15T05:19:13;99619.38;;;18.72
15709;BMP180;7954;51.914;8.420;2022-11-15T05:21:41;99628.91;;;18.73
15709;BMP180;7954;51.914;8.420;2022-11-15T05:24:12;99613.53;;;18.73
15709;BMP180;7954;51.914;8.420;2022-11-15T05:26:40;99618.13;;;18.75
15709;BMP180;7954;51.914;8.420;2022-11-15T05:29:09;99617.94;;;18.74
15709;BMP180;7954;51.914;8.420;2022-11-15T05:31:39;99618.13;;;18.75
15709;BMP180;7954;51.914;8.420;2022-11-15T05:34:08;99607.88;;;18.75
15709;BMP180;7954;51.914;8.420;2022-11-15T05:36:37;99602.78;;;18.75
15709;BMP180;7954;51.914;8.420;2022-11-15T05:39:06;99605.31;;;18.75
15709;BMP180;7954;51.914;8.420;2022-11-15T05:41:39;99605.31;;;18.75
15709;BMP180;7954;51.914;8.420;2022-11-15T05:44:11;99606.44;;;18.77
15709;BMP180;7954;51.914;8.420;2022-11-15T05:46:41;99599.13;;;18.80
15709;BMP180;7954;51.914;8.420;2022-11-15T05:49:12;99607.16;;;18.76
15709;BMP180;7954;51.914;8.420;2022-11-15T05:51:42;99605.16;;;18.74
15709;BMP180;7954;51.914;8.420;2022-11-15T05:54:13;99598.56;;;18.76
15709;BMP180;7954;51.914;8.420;2022-11-15T05:56:43;99595.09;;;18.75
15709;BMP180;7954;51.914;8.420;2022-11-15T05:59:12;99602.78;;;18.75
15709;BMP180;7954;51.914;8.420;2022-11-15T06:01:41;99594.75;;;18.72
15709;BMP180;7954;51.914;8.420;2022-11-15T06:04:09;99598.91;;;18.72
15709;BMP180;7954;51.914;8.420;2022-11-15T06:06:37;99592.19;;;18.72
15709;BMP180;7954;51.914;8.420;2022-11-15T06:09:05;99583.75;;;18.73
15709;BMP180;7954;51.914;8.420;2022-11-15T06:11:33;99595.09;;;18.75
15709;BMP180;7954;51.914;8.420;2022-11-15T06:14:02;99590.34;;;18.78
15709;BMP180;7954;51.914;8.420;2022-11-15T06:16:30;99592.34;;;18.81
15709;BMP180;7954;51.914;8.420;2022-11-15T06:18:59;99589.97;;;18.75
15709;BMP180;7954;51.914;8.420;2022-11-15T06:21:26;99601.09;;;18.76
15709;BMP180;7954;51.914;8.420;2022-11-15T06:23:55;99590.34;;;18.78
15709;BMP180;7954;51.914;8.420;2022-11-15T06:26:23;99588.53;;;18.77
15709;BMP180;7954;51.914;8.420;2022-11-15T06:28:52;99596.94;;;18.76
15709;BMP180;7954;51.914;8.420;2022-11-15T06:31:23;99610.63;;;18.77
15709;BMP180;7954;51.914;8.420;2022-11-15T06:33:51;99614.47;;;18.80
15709;BMP180;7954;51.914;8.420;2022-11-15T06:36:19;99604.06;;;18.79
15709;BMP180;7954;51.914;8.420;2022-11-15T06:38:48;99608.63;;;18.81
15709;BMP180;7954;51.914;8.420;2022-11-15T06:41:15;99599.47;;;18.83
15709;BMP180;7954;51.914;8.420;2022-11-15T06:43:45;99609.91;;;18.85
15709;BMP180;7954;51.914;8.420;2022-11-15T06:46:14;99610.44;;;18.89
15709;BMP180;7954;51.914;8.420;2022-11-15T06:48:43;99612.28;;;18.97
15709;BMP180;7954;51.914;8.420;2022-11-15T06:51:11;99620.88;;;19.05
15709;BMP180;7954;51.914;8.420;2022-11-15T06:53:39;99614.16;;;19.12
15709;BMP180;7954;51.914;8.420;2022-11-15T06:56:07;99623.47;;;19.19
15709;BMP180;7954;51.914;8.420;2022-11-15T06:58:35;99618.16;;;19.24
15709;BMP180;7954;51.914;8.420;2022-11-15T07:01:05;99618.88;;;19.30
15709;BMP180;7954;51.914;8.420;2022-11-15T07:03:35;99627.50;;;19.24
15709;BMP180;7954;51.914;8.420;2022-11-15T07:06:05;99630.41;;;19.27
15709;BMP180;7954;51.914;8.420;2022-11-15T07:08:34;99635.72;;;19.21
15709;BMP180;7954;51.914;8.420;2022-11-15T07:11:04;99633.53;;;19.17
15709;BMP180;7954;51.914;8.420;2022-11-15T07:13:33;99630.44;;;19.20
15709;BMP180;7954;51.914;8.420;2022-11-15T07:16:03;99633.16;;;19.21
15709;BMP180;7954;51.914;8.420;2022-11-15T07:18:33;99630.25;;;19.11
15709;BMP180;7954;51.914;8.420;2022-11-15T07:21:03;99649.25;;;19.20
15709;BMP180;7954;51.914;8.420;2022-11-15T07:23:35;99641.91;;;19.23
15709;BMP180;7954;51.914;8.420;2022-11-15T07:26:04;99651.25;;;19.30
15709;BMP180;7954;51.914;8.420;2022-11-15T07:28:33;99652.19;;;19.37
15709;BMP180;7954;51.914;8.420;2022-11-15T07:31:03;99648.50;;;19.42
15709;BMP180;7954;51.914;8.420;2022-11-15T07:33:31;99653.63;;;19.35
15709;BMP180;7954;51.914;8.420;2022-11-15T07:36:02;99647.41;;;19.33
15709;BMP180;7954;51.914;8.420;2022-11-15T07:38:30;99638.63;;;19.38
15709;BMP180;7954;51.914;8.420;2022-11-15T07:41:06;99641.00;;;19.43
15709;BMP180;7954;51.914;8.420;2022-11-15T07:43:34;99650.31;;;19.50
15709;BMP180;7954;51.914;8.420;2022-11-15T07:46:05;99638.41;;;19.50
15709;BMP180;7954;51.914;8.420;2022-11-15T07:48:36;99647.03;;;19.51
15709;BMP180;7954;51.914;8.420;2022-11-15T07:51:11;99649.38;;;19.56
15709;BMP180;7954;51.914;8.420;2022-11-15T07:53:40;99657.28;;;19.51
15709;BMP180;7954;51.914;8.420;2022-11-15T07:56:11;99646.44;;;19.60
15709;BMP180;7954;51.914;8.420;2022-11-15T07:58:39;99655.03;;;19.68
15709;BMP180;7954;51.914;8.420;2022-11-15T08:01:11;99647.34;;;19.68
15709;BMP180;7954;51.914;8.420;2022-11-15T08:03:40;99646.25;;;19.73
15709;BMP180;7954;51.914;8.420;2022-11-15T08:06:08;99640.91;;;19.85
15709;BMP180;7954;51.914;8.420;2022-11-15T08:08:36;99656.84;;;19.97
15709;BMP180;7954;51.914;8.420;2022-11-15T08:11:04;99645.66;;;20.03
15709;BMP180;7954;51.914;8.420;2022-11-15T08:13:34;99628.94;;;20.13
15709;BMP180;7954;51.914;8.420;2022-11-15T08:16:04;99642.06;;;20.23
15709;BMP180;7954;51.914;8.420;2022-11-15T08:18:32;99625.56;;;20.28
15709;BMP180;7954;51.914;8.420;2022-11-15T08:21:01;99636.94;;;20.30
15709;BMP180;7954;51.914;8.420;2022-11-15T08:23:29;99630.34;;;20.32
15709;BMP180;7954;51.914;8.420;2022-11-15T08:26:00;99628.13;;;20.28
15709;BMP180;7954;51.914;8.420;2022-11-15T08:28:30;99621.19;;;20.27
15709;BMP180;7954;51.914;8.420;2022-11-15T08:31:00;99617.16;;;20.29
15709;BMP180;7954;51.914;8.420;2022-11-15T08:33:28;99615.69;;;20.31
15709;BMP180;7954;51.914;8.420;2022-11-15T08:35:58;99616.41;;;20.30
15709;BMP180;7954;51.914;8.420;2022-11-15T08:38:26;99618.41;;;20.33
15709;BMP180;7954;51.914;8.420;2022-11-15T08:41:00;99616.75;;;20.33
15709;BMP180;7954;51.914;8.420;2022-11-15T08:43:28;99616.16;;;20.43
15709;BMP180;7954;51.914;8.420;2022-11-15T08:45:57;99617.44;;;20.46
15709;BMP180;7954;51.914;8.420;2022-11-15T08:48:27;99614.06;;;20.61
15709;BMP180;7954;51.914;8.420;2022-11-15T08:50:55;99625.91;;;20.67
15709;BMP180;7954;51.914;8.420;2022-11-15T08:53:23;99615.09;;;20.70
15709;BMP180;7954;51.914;8.420;2022-11-15T08:55:51;99627.19;;;20.71
15709;BMP180;7954;51.914;8.420;2022-11-15T08:58:19;99619.66;;;20.79
15709;BMP180;7954;51.914;8.420;2022-11-15T09:00:47;99617.09;;;20.79
15709;BMP180;7954;51.914;8.420;2022-11-15T09:03:16;99617.88;;;20.94
15709;BMP180;7954;51.914;8.420;2022-11-15T09:05:46;99604.63;;;20.98
15709;BMP180;7954;51.914;8.420;2022-11-15T09:08:14;99619.59;;;21.09
15709;BMP180;7954;51.914;8.420;2022-11-15T09:11:04;99604.69;;;21.13
15709;BMP180;7954;51.914;8.420;2022-11-15T09:13:32;99610.00;;;21.15
15709;BMP180;7954;51.914;8.420;2022-11-15T09:16:01;99622.25;;;21.17
15709;BMP180;7954;51.914;8.420;2022-11-15T09:18:29;99610.91;;;21.15
15709;BMP180;7954;51.914;8.420;2022-11-15T09:21:01;99615.25;;;21.23
15709;BMP180;7954;51.914;8.420;2022-11-15T09:23:30;99606.88;;;21.32
15709;BMP180;7954;51.914;8.420;2022-11-15T09:25:59;99620.50;;;21.32
15709;BMP180;7954;51.914;8.420;2022-11-15T09:28:29;99613.38;;;21.44
15709;BMP180;7954;51.914;8.420;2022-11-15T09:30:58;99605.44;;;21.50
15709;BMP180;7954;51.914;8.420;2022-11-15T09:33:26;99607.25;;;21.58
15709;BMP180;7954;51.914;8.420;2022-11-15T09:36:01;99607.16;;;21.65
15709;BMP180;7954;51.914;8.420;2022-11-15T09:38:29;99601.78;;;21.70
15709;BMP180;7954;51.914;8.420;2022-11-15T09:41:38;99606.19;;;21.71
15709;BMP180;7954;51.914;8.420;2022-11-15T09:44:21;99599.44;;;21.65
15709;BMP180;7954;51.914;8.420;2022-11-15T09:46:59;99596.69;;;21.63
15709;BMP180;7954;51.914;8.420;2022-11-15T09:49:29;99602.41;;;21.61
15709;BMP180;7954;51.914;8.420;2022-11-15T09:52:00;99605.16;;;21.62
15709;BMP180;7954;51.914;8.420;2022-11-15T09:54:30;99602.84;;;21.72
15709;BMP180;7954;51.914;8.420;2022-11-15T09:57:21;99601.34;;;21.74
15709;BMP180;7954;51.914;8.420;2022-11-15T10:00:02;99598.84;;;21.67
15709;BMP180;7954;51.914;8.420;2022-11-15T10:03:01;99590.75;;;21.71
15709;BMP180;7954;51.914;8.420;2022-11-15T10:05:37;99600.47;;;21.74
15709;BMP180;7954;51.914;8.420;2022-11-15T10:08:16;99594.91;;;21.78
15709;BMP180;7954;51.914;8.420;2022-11-15T10:10:52;99591.31;;;21.84
15709;BMP180;7954;51.914;8.420;2022-11-15T10:13:44;99583.13;;;21.95
15709;BMP180;7954;51.914;8.420;2022-11-15T10:16:26;99574.25;;;22.00
15709;BMP180;7954;51.914;8.420;2022-11-15T10:19:03;99569.91;;;22.07
15709;BMP180;7954;51.914;8.420;2022-11-15T10:21:40;99564.28;;;22.18
15709;BMP180;7954;51.914;8.420;2022-11-15T10:24:19;99573.03;;;22.20
15709;BMP180;7954;51.914;8.420;2022-11-15T10:26:48;99555.38;;;22.23
15709;BMP180;7954;51.914;8.420;2022-11-15T10:29:18;99558.47;;;22.28
15709;BMP180;7954;51.914;8.420;2022-11-15T10:31:53;99556.13;;;22.07
15709;BMP180;7954;51.914;8.420;2022-11-15T10:34:23;99550.16;;;21.99
15709;BMP180;7954;51.914;8.420;2022-11-15T10:36:55;99549.44;;;22.00
15709;BMP180;7954;51.914;8.420;2022-11-15T10:39:25;99536.34;;;22.06
15709;BMP180;7954;51.914;8.420;2022-11-15T10:41:54;99541.34;;;22.13
15709;BMP180;7954;51.914;8.420;2022-11-15T10:44:25;99538.72;;;22.04
15709;BMP180;7954;51.914;8.420;2022-11-15T10:47:23;99534.16;;;22.17
15709;BMP180;7954;51.914;8.420;2022-11-15T10:50:00;99530.84;;;22.18
15709;BMP180;7954;51.914;8.420;2022-11-15T10:52:29;99529.31;;;22.20
15709;BMP180;7954;51.914;8.420;2022-11-15T10:55:04;99523.34;;;22.13
15709;BMP180;7954;51.914;8.420;2022-11-15T10:57:36;99514.00;;;22.13
15709;BMP180;7954;51.914;8.420;2022-11-15T11:00:07;99517.69;;;22.24
15709;BMP180;7954;51.914;8.420;2022-11-15T11:02:37;99508.59;;;22.19
15709;BMP180;7954;51.914;8.420;2022-11-15T11:05:26;99509.56;;;22.28
15709;BMP180;7954;51.914;8.420;2022-11-15T11:07:57;99513.88;;;22.20
15709;BMP180;7954;51.914;8.420;2022-11-15T11:10:28;99508.56;;;22.34
15709;BMP180;7954;51.914;8.420;2022-11-15T11:13:22;99506.69;;;22.49
15709;BMP180;7954;51.914;8.420;2022-11-15T11:15:55;99504.59;;;22.53
15709;BMP180;7954;51.914;8.420;2022-11-15T11:18:29;99504.00;;;22.56
15709;BMP180;7954;51.914;8.420;2022-11-15T11:21:05;99497.34;;;22.58
15709;BMP180;7954;51.914;8.420;2022-11-15T11:23:44;99492.34;;;22.51
15709;BMP180;7954;51.914;8.420;2022-11-15T11:26:40;99491.59;;;22.60
15709;BMP180;7954;51.914;8.420;2022-11-15T11:29:20;99481.25;;;22.75
15709;BMP180;7954;51.914;8.420;2022-11-15T11:31:58;99467.44;;;22.75
15709;BMP180;7954;51.914;8.420;2022-11-15T11:34:36;99462.16;;;22.73
15709;BMP180;7954;51.914;8.420;2022-11-15T11:37:12;99455.91;;;22.71
15709;BMP180;7954;51.914;8.420;2022-11-15T11:39:49;99448.13;;;22.87
15709;BMP180;7954;51.914;8.420;2022-11-15T11:42:26;99454.78;;;22.93
15709;BMP180;7954;51.914;8.420;2022-11-15T11:45:05;99451.19;;;22.91
15709;BMP180;7954;51.914;8.420;2022-11-15T11:47:46;99439.66;;;22.88
15709;BMP180;7954;51.914;8.420;2022-11-15T11:50:17;99436.69;;;22.76
15709;BMP180;7954;51.914;8.420;2022-11-15T11:52:56;99440.50;;;22.80
15709;BMP180;7954;51.914;8.420;2022-11-15T11:55:33;99434.13;;;22.76
15709;BMP180;7954;51.914;8.420;2022-11-15T11:58:11;99421.41;;;22.69
15709;BMP180;7954;51.914;8.420;2022-11-15T12:00:45;99425.91;;;22.63
15709;BMP180;7954;51.914;8.420;2022-11-15T12:03:25;99434.00;;;22.83
15709;BMP180;7954;51.914;8.420;2022-11-15T12:05:58;99423.94;;;23.02
15709;BMP180;7954;51.914;8.420;2022-11-15T12:08:32;99419.28;;;23.23
15709;BMP180;7954;51.914;8.420;2022-11-15T12:11:09;99406.44;;;23.40
15709;BMP180;7954;51.914;8.420;2022-11-15T12:13:40;99406.72;;;23.51
15709;BMP180;7954;51.914;8.420;2022-11-15T12:16:12;99399.59;;;23.57
15709;BMP180;7954;51.914;8.420;2022-11-15T12:18:45;99395.97;;;23.64
15709;BMP180;7954;51.914;8.420;2022-11-15T12:21:19;99396.59;;;23.78
15709;BMP180;7954;51.914;8.420;2022-11-15T12:23:58;99397.50;;;23.79
15709;BMP180;7954;51.914;8.420;2022-11-15T12:26:34;99396.69;;;23.96
15709;BMP180;7954;51.914;8.420;2022-11-15T12:29:09;99385.44;;;24.13
15709;BMP180;7954;51.914;8.420;2022-11-15T12:31:44;99384.03;;;24.25
15709;BMP180;7954;51.914;8.420;2022-11-15T12:34:30;99378.97;;;24.35
15709;BMP180;7954;51.914;8.420;2022-11-15T12:40:32;99372.78;;;24.68
15709;BMP180;7954;51.914;8.420;2022-11-15T12:43:05;99373.94;;;24.80
15709;BMP180;7954;51.914;8.420;2022-11-15T12:45:41;99366.75;;;24.86
15709;BMP180;7954;51.914;8.420;2022-11-15T12:55:02;99343.75;;;25.71
15709;BMP180;7954;51.914;8.420;2022-11-15T12:57:41;99333.78;;;25.93
15709;BMP180;7954;51.914;8.420;2022-11-15T13:00:46;99329.09;;;26.18
15709;BMP180;7954;51.914;8.420;2022-11-15T13:03:25;99327.56;;;26.20
15709;BMP180;7954;51.914;8.420;2022-11-15T13:06:06;99320.91;;;26.52
15709;BMP180;7954;51.914;8.420;2022-11-15T13:08:40;99325.09;;;26.79
15709;BMP180;7954;51.914;8.420;2022-11-15T13:11:42;99315.88;;;26.93
15709;BMP180;7954;51.914;8.420;2022-11-15T13:14:38;99304.84;;;26.85
15709;BMP180;7954;51.914;8.420;2022-11-15T13:17:23;99318.34;;;26.61
15709;BMP180;7954;51.914;8.420;2022-11-15T13:19:55;99310.19;;;26.67
15709;BMP180;7954;51.914;8.420;2022-11-15T13:22:25;99306.97;;;26.79
15709;BMP180;7954;51.914;8.420;2022-11-15T13:25:19;99306.44;;;26.93
15709;BMP180;7954;51.914;8.420;2022-11-15T13:27:50;99290.25;;;26.86
15709;BMP180;7954;51.914;8.420;2022-11-15T13:30:22;99299.31;;;26.71
15709;BMP180;7954;51.914;8.420;2022-11-15T13:32:53;99300.72;;;26.77
15709;BMP180;7954;51.914;8.420;2022-11-15T13:35:23;99288.56;;;26.96
15709;BMP180;7954;51.914;8.420;2022-11-15T13:37:52;99296.75;;;27.01
15709;BMP180;7954;51.914;8.420;2022-11-15T13:40:23;99296.84;;;26.92
15709;BMP180;7954;51.914;8.420;2022-11-15T13:42:55;99283.88;;;26.82
15709;BMP180;7954;51.914;8.420;2022-11-15T13:45:23;99280.00;;;26.77
15709;BMP180;7954;51.914;8.420;2022-11-15T13:47:57;99278.47;;;27.09
15709;BMP180;7954;51.914;8.420;2022-11-15T13:50:28;99274.91;;;27.28
15709;BMP180;7954;51.914;8.420;2022-11-15T13:53:01;99283.69;;;27.40
15709;BMP180;7954;51.914;8.420;2022-11-15T13:55:31;99276.25;;;27.55
15709;BMP180;7954;51.914;8.420;2022-11-15T13:58:01;99266.28;;;27.49
15709;BMP180;7954;51.914;8.420;2022-11-15T14:00:35;99268.88;;;27.08
15709;BMP180;7954;51.914;8.420;2022-11-15T14:03:16;99271.31;;;27.17
15709;BMP180;7954;51.914;8.420;2022-11-15T14:05:46;99277.78;;;27.31
15709;BMP180;7954;51.914;8.420;2022-11-15T14:08:29;99261.88;;;26.97
15709;BMP180;7954;51.914;8.420;2022-11-15T14:11:09;99270.69;;;26.69
15709;BMP180;7954;51.914;8.420;2022-11-15T14:13:41;99273.25;;;26.40
15709;BMP180;7954;51.914;8.420;2022-11-15T14:16:14;99275.88;;;26.11
15709;BMP180;7954;51.914;8.420;2022-11-15T14:18:46;99274.50;;;26.25
15709;BMP180;7954;51.914;8.420;2022-11-15T14:21:15;99275.81;;;26.30
15709;BMP180;7954;51.914;8.420;2022-11-15T14:23:43;99267.22;;;26.21
15709;BMP180;7954;51.914;8.420;2022-11-15T14:26:27;99268.63;;;26.07
15709;BMP180;7954;51.914;8.420;2022-11-15T14:28:55;99270.06;;;26.04
15709;BMP180;7954;51.914;8.420;2022-11-15T14:31:23;99260.03;;;25.98
15709;BMP180;7954;51.914;8.420;2022-11-15T14:33:53;99261.50;;;25.95
15709;BMP180;7954;51.914;8.420;2022-11-15T14:36:21;99246.41;;;25.81
15709;BMP180;7954;51.914;8.420;2022-11-15T14:38:49;99246.09;;;25.68
15709;BMP180;7954;51.914;8.420;2022-11-15T14:41:20;99252.06;;;25.49
15709;BMP180;7954;51.914;8.420;2022-11-15T14:43:49;99252.91;;;25.29
15709;BMP180;7954;51.914;8.420;2022-11-15T14:46:18;99254.41;;;24.91
15709;BMP180;7954;51.914;8.420;2022-11-15T14:48:46;99260.31;;;24.53
15709;BMP180;7954;51.914;8.420;2022-11-15T14:51:17;99264.94;;;24.39
15709;BMP180;7954;51.914;8.420;2022-11-15T14:53:46;99264.28;;;24.23
15709;BMP180;7954;51.914;8.420;2022-11-15T14:56:15;99265.56;;;24.09
15709;BMP180;7954;51.914;8.420;2022-11-15T14:58:43;99264.53;;;23.99
15709;BMP180;7954;51.914;8.420;2022-11-15T15:01:13;99256.78;;;23.99
15709;BMP180;7954;51.914;8.420;2022-11-15T15:03:42;99252.72;;;23.93
15709;BMP180;7954;51.914;8.420;2022-11-15T15:06:10;99248.03;;;23.89